sensor_id;sensor_type;location;lat;lon;timestamp;P1;durP1;ratioP1;P2;durP2;ratioP2
53718;SDS011;39616;48.872;9.390;2023-04-24T00:01:12;0.30;;;0.30;;
53718;SDS011;39616;48.872;9.390;2023-04-24T00:03:43;1.75;;;0.43;;
53718;SDS011;39616;48.872;9.390;2023-04-24T00:06:13;0.40;;;0.40;;
53718;SDS011;39616;48.872;9.390;2023-04-24T00:08:43;1.33;;;0.40;;
53718;SDS011;39616;48.872;9.390;2023-04-24T00:11:14;0.95;;;0.50;;
53718;SDS011;39616;48.872;9.390;2023-04-24T00:13:44;2.03;;;0.30;;
53718;SDS011;39616;48.872;9.390;2023-04-24T00:16:15;0.30;;;0.30;;
53718;SDS011;39616;48.872;9.390;2023-04-24T00:18:45;0.50;;;0.40;;
53718;SDS011;39616;48.872;9.390;2023-04-24T00:21:17;0.50;;;0.50;;
53718;SDS011;39616;48.872;9.390;2023-04-24T00:23:48;0.50;;;0.30;;
53718;SDS011;39616;48.872;9.390;2023-04-24T00:26:18;1.25;;;0.40;;
53718;SDS011;39616;48.872;9.390;2023-04-24T00:28:48;0.35;;;0.30;;
53718;SDS011;39616;48.872;9.390;2023-04-24T00:31:19;0.80;;;0.47;;
53718;SDS011;39616;48.872;9.390;2023-04-24T00:33:49;1.92;;;0.40;;
53718;SDS011;39616;48.872;9.390;2023-04-24T00:36:19;0.40;;;0.30;;
53718;SDS011;39616;48.872;9.390;2023-04-24T00:38:50;0.82;;;0.30;;
53718;SDS011;39616;48.872;9.390;2023-04-24T00:41:21;0.32;;;0.30;;
53718;SDS011;39616;48.872;9.390;2023-04-24T00:43:52;0.60;;;0.30;;
53718;SDS011;39616;48.872;9.390;2023-04-24T00:46:22;0.80;;;0.40;;
53718;SDS011;39616;48.872;9.390;2023-04-24T00:48:53;1.02;;;0.40;;
53718;SDS011;39616;48.872;9.390;2023-04-24T00:51:24;1.35;;;0.40;;
53718;SDS011;39616;48.872;9.390;2023-04-24T00:53:54;1.45;;;0.35;;
53718;SDS011;39616;48.872;9.390;2023-04-24T00:56:25;0.82;;;0.30;;
53718;SDS011;39616;48.872;9.390;2023-04-24T00:58:55;1.45;;;0.40;;
53718;SDS011;39616;48.872;9.390;2023-04-24T01:01:26;1.65;;;0.47;;
53718;SDS011;39616;48.872;9.390;2023-04-24T01:03:56;0.40;;;0.40;;
53718;SDS011;39616;48.872;9.390;2023-04-24T01:06:28;3.75;;;0.45;;
53718;SDS011;39616;48.872;9.390;2023-04-24T01:09:01;0.90;;;0.30;;
53718;SDS011;39616;48.872;9.390;2023-04-24T01:11:31;1.88;;;0.30;;
53718;SDS011;39616;48.872;9.390;2023-04-24T01:14:01;0.40;;;0.40;;
53718;SDS011;39616;48.872;9.390;2023-04-24T01:16:32;2.20;;;0.40;;
53718;SDS011;39616;48.872;9.390;2023-04-24T01:19:03;1.45;;;0.47;;
53718;SDS011;39616;48.872;9.390;2023-04-24T01:21:36;0.40;;;0.40;;
53718;SDS011;39616;48.872;9.390;2023-04-24T01:24:07;1.95;;;0.98;;
53718;SDS011;39616;48.872;9.390;2023-04-24T01:26:37;0.30;;;0.30;;
53718;SDS011;39616;48.872;9.390;2023-04-24T01:29:08;3.45;;;0.95;;
53718;SDS011;39616;48.872;9.390;2023-04-24T01:31:39;2.83;;;0.50;;
53718;SDS011;39616;48.872;9.390;2023-04-24T01:34:10;0.60;;;0.40;;
53718;SDS011;39616;48.872;9.390;2023-04-24T01:36:40;0.30;;;0.30;;
53718;SDS011;39616;48.872;9.390;2023-04-24T01:39:11;2.28;;;0.30;;
53718;SDS011;39616;48.872;9.390;2023-04-24T01:41:42;1.40;;;0.40;;
53718;SDS011;39616;48.872;9.390;2023-04-24T01:44:13;0.70;;;0.40;;
53718;SDS011;39616;48.872;9.390;2023-04-24T01:46:44;1.42;;;0.50;;
53718;SDS011;39616;48.872;9.390;2023-04-24T01:49:14;0.50;;;0.40;;
53718;SDS011;39616;48.872;9.390;2023-04-24T01:51:45;0.90;;;0.60;;
53718;SDS011;39616;48.872;9.390;2023-04-24T01:54:16;1.13;;;0.50;;
53718;SDS011;39616;48.872;9.390;2023-04-24T01:56:46;0.63;;;0.40;;
53718;SDS011;39616;48.872;9.390;2023-04-24T01:59:17;1.80;;;0.35;;
53718;SDS011;39616;48.872;9.390;2023-04-24T02:01:48;2.80;;;0.40;;
53718;SDS011;39616;48.872;9.390;2023-04-24T02:04:18;0.40;;;0.40;;
53718;SDS011;39616;48.872;9.390;2023-04-24T02:06:49;0.80;;;0.30;;
53718;SDS011;39616;48.872;9.390;2023-04-24T02:09:19;0.65;;;0.30;;
53718;SDS011;39616;48.872;9.390;2023-04-24T02:11:50;2.08;;;0.40;;
53718;SDS011;39616;48.872;9.390;2023-04-24T02:14:20;0.32;;;0.30;;
53718;SDS011;39616;48.872;9.390;2023-04-24T02:16:50;1.10;;;0.30;;
53718;SDS011;39616;48.872;9.390;2023-04-24T02:19:20;2.83;;;0.40;;
53718;SDS011;39616;48.872;9.390;2023-04-24T02:21:51;1.05;;;0.30;;
53718;SDS011;39616;48.872;9.390;2023-04-24T02:24:21;2.35;;;0.45;;
53718;SDS011;39616;48.872;9.390;2023-04-24T02:26:51;1.88;;;0.30;;
53718;SDS011;39616;48.872;9.390;2023-04-24T02:29:22;1.25;;;0.30;;
53718;SDS011;39616;48.872;9.390;2023-04-24T02:31:52;0.43;;;0.40;;
53718;SDS011;39616;48.872;9.390;2023-04-24T02:34:23;1.52;;;0.40;;
53718;SDS011;39616;48.872;9.390;2023-04-24T02:36:53;0.80;;;0.30;;
53718;SDS011;39616;48.872;9.390;2023-04-24T02:39:26;2.40;;;0.30;;
53718;SDS011;39616;48.872;9.390;2023-04-24T02:41:56;1.75;;;0.38;;
53718;SDS011;39616;48.872;9.390;2023-04-24T02:44:27;2.13;;;0.40;;
53718;SDS011;39616;48.872;9.390;2023-04-24T02:46:57;1.50;;;0.35;;
53718;SDS011;39616;48.872;9.390;2023-04-24T02:49:27;1.50;;;0.40;;
53718;SDS011;39616;48.872;9.390;2023-04-24T02:51:58;1.35;;;0.30;;
53718;SDS011;39616;48.872;9.390;2023-04-24T02:54:28;1.13;;;0.30;;
53718;SDS011;39616;48.872;9.390;2023-04-24T02:56:58;1.67;;;0.30;;
53718;SDS011;39616;48.872;9.390;2023-04-24T02:59:31;0.65;;;0.30;;
53718;SDS011;39616;48.872;9.390;2023-04-24T03:02:01;0.40;;;0.40;;
53718;SDS011;39616;48.872;9.390;2023-04-24T03:04:32;0.55;;;0.35;;
53718;SDS011;39616;48.872;9.390;2023-04-24T03:07:02;1.38;;;0.30;;
53718;SDS011;39616;48.872;9.390;2023-04-24T03:09:32;7.05;;;0.50;;
53718;SDS011;39616;48.872;9.390;2023-04-24T03:12:03;0.63;;;0.40;;
53718;SDS011;39616;48.872;9.390;2023-04-24T03:14:33;0.98;;;0.30;;
53718;SDS011;39616;48.872;9.390;2023-04-24T03:17:03;2.08;;;0.35;;
53718;SDS011;39616;48.872;9.390;2023-04-24T03:19:34;1.77;;;0.40;;
53718;SDS011;39616;48.872;9.390;2023-04-24T03:22:04;1.13;;;0.45;;
53718;SDS011;39616;48.872;9.390;2023-04-24T03:24:35;4.47;;;0.35;;
53718;SDS011;39616;48.872;9.390;2023-04-24T03:27:05;1.60;;;0.50;;
53718;SDS011;39616;48.872;9.390;2023-04-24T03:29:35;2.92;;;0.50;;
53718;SDS011;39616;48.872;9.390;2023-04-24T03:32:05;0.93;;;0.40;;
53718;SDS011;39616;48.872;9.390;2023-04-24T03:34:36;0.50;;;0.50;;
53718;SDS011;39616;48.872;9.390;2023-04-24T03:37:06;2.38;;;0.40;;
53718;SDS011;39616;48.872;9.390;2023-04-24T03:39:36;0.90;;;0.32;;
53718;SDS011;39616;48.872;9.390;2023-04-24T03:42:07;0.40;;;0.40;;
53718;SDS011;39616;48.872;9.390;2023-04-24T03:44:38;0.30;;;0.30;;
53718;SDS011;39616;48.872;9.390;2023-04-24T03:47:08;0.47;;;0.40;;
53718;SDS011;39616;48.872;9.390;2023-04-24T03:49:39;0.45;;;0.40;;
53718;SDS011;39616;48.872;9.390;2023-04-24T03:52:09;0.47;;;0.32;;
53718;SDS011;39616;48.872;9.390;2023-04-24T03:54:39;2.28;;;0.40;;
53718;SDS011;39616;48.872;9.390;2023-04-24T03:57:10;0.40;;;0.40;;
53718;SDS011;39616;48.872;9.390;2023-04-24T03:59:40;0.50;;;0.40;;
53718;SDS011;39616;48.872;9.390;2023-04-24T04:02:10;0.52;;;0.40;;
53718;SDS011;39616;48.872;9.390;2023-04-24T04:04:41;2.88;;;0.50;;
53718;SDS011;39616;48.872;9.390;2023-04-24T04:07:11;1.05;;;0.43;;
53718;SDS011;39616;48.872;9.390;2023-04-24T04:09:42;0.40;;;0.40;;
53718;SDS011;39616;48.872;9.390;2023-04-24T04:12:13;1.75;;;0.43;;
53718;SDS011;39616;48.872;9.390;2023-04-24T04:14:43;0.45;;;0.40;;
53718;SDS011;39616;48.872;9.390;2023-04-24T04:17:13;1.90;;;0.40;;
53718;SDS011;39616;48.872;9.390;2023-04-24T04:19:44;1.48;;;0.40;;
53718;SDS011;39616;48.872;9.390;2023-04-24T04:22:14;1.27;;;0.40;;
53718;SDS011;39616;48.872;9.390;2023-04-24T04:24:45;0.38;;;0.30;;
53718;SDS011;39616;48.872;9.390;2023-04-24T04:27:16;0.40;;;0.40;;
53718;SDS011;39616;48.872;9.390;2023-04-24T04:29:48;1.75;;;0.40;;
53718;SDS011;39616;48.872;9.390;2023-04-24T04:32:18;0.73;;;0.40;;
53718;SDS011;39616;48.872;9.390;2023-04-24T04:34:49;0.30;;;0.30;;
53718;SDS011;39616;48.872;9.390;2023-04-24T04:37:19;0.55;;;0.40;;
53718;SDS011;39616;48.872;9.390;2023-04-24T04:39:49;1.17;;;0.45;;
53718;SDS011;39616;48.872;9.390;2023-04-24T04:42:20;1.02;;;0.35;;
53718;SDS011;39616;48.872;9.390;2023-04-24T04:44:50;1.77;;;0.50;;
53718;SDS011;39616;48.872;9.390;2023-04-24T04:47:21;0.40;;;0.40;;
53718;SDS011;39616;48.872;9.390;2023-04-24T04:49:54;1.33;;;0.40;;
53718;SDS011;39616;48.872;9.390;2023-04-24T04:52:25;0.70;;;0.60;;
53718;SDS011;39616;48.872;9.390;2023-04-24T04:54:56;0.82;;;0.63;;
53718;SDS011;39616;48.872;9.390;2023-04-24T04:57:26;3.80;;;0.70;;
53718;SDS011;39616;48.872;9.390;2023-04-24T04:59:57;2.35;;;0.70;;
53718;SDS011;39616;48.872;9.390;2023-04-24T05:02:27;2.22;;;0.57;;
53718;SDS011;39616;48.872;9.390;2023-04-24T05:04:58;3.35;;;0.50;;
53718;SDS011;39616;48.872;9.390;2023-04-24T05:07:28;2.70;;;0.88;;
53718;SDS011;39616;48.872;9.390;2023-04-24T05:09:58;3.40;;;0.68;;
53718;SDS011;39616;48.872;9.390;2023-04-24T05:12:28;2.13;;;0.68;;
53718;SDS011;39616;48.872;9.390;2023-04-24T05:14:59;1.40;;;0.68;;
53718;SDS011;39616;48.872;9.390;2023-04-24T05:17:29;2.15;;;0.70;;
53718;SDS011;39616;48.872;9.390;2023-04-24T05:19:59;1.35;;;0.70;;
53718;SDS011;39616;48.872;9.390;2023-04-24T05:22:31;10.63;;;1.10;;
53718;SDS011;39616;48.872;9.390;2023-04-24T05:25:01;1.73;;;0.90;;
53718;SDS011;39616;48.872;9.390;2023-04-24T05:27:32;3.05;;;1.58;;
53718;SDS011;39616;48.872;9.390;2023-04-24T05:30:03;1.88;;;1.00;;
53718;SDS011;39616;48.872;9.390;2023-04-24T05:32:34;1.98;;;0.80;;
53718;SDS011;39616;48.872;9.390;2023-04-24T05:35:04;3.65;;;1.00;;
53718;SDS011;39616;48.872;9.390;2023-04-24T05:37:35;1.10;;;0.80;;
53718;SDS011;39616;48.872;9.390;2023-04-24T05:40:05;0.70;;;0.60;;
53718;SDS011;39616;48.872;9.390;2023-04-24T05:42:36;1.95;;;0.90;;
53718;SDS011;39616;48.872;9.390;2023-04-24T05:45:07;3.17;;;0.80;;
53718;SDS011;39616;48.872;9.390;2023-04-24T05:47:37;1.98;;;0.75;;
53718;SDS011;39616;48.872;9.390;2023-04-24T05:50:08;0.70;;;0.70;;
53718;SDS011;39616;48.872;9.390;2023-04-24T05:52:38;0.98;;;0.80;;
53718;SDS011;39616;48.872;9.390;2023-04-24T05:55:09;2.17;;;0.80;;
53718;SDS011;39616;48.872;9.390;2023-04-24T05:57:39;1.73;;;0.88;;
53718;SDS011;39616;48.872;9.390;2023-04-24T06:00:09;1.05;;;0.65;;
53718;SDS011;39616;48.872;9.390;2023-04-24T06:02:42;0.95;;;0.75;;
53718;SDS011;39616;48.872;9.390;2023-04-24T06:05:12;2.83;;;0.70;;
53718;SDS011;39616;48.872;9.390;2023-04-24T06:07:42;0.98;;;0.80;;
53718;SDS011;39616;48.872;9.390;2023-04-24T06:10:12;2.00;;;0.90;;
53718;SDS011;39616;48.872;9.390;2023-04-24T06:12:43;1.00;;;0.90;;
53718;SDS011;39616;48.872;9.390;2023-04-24T06:15:13;1.63;;;0.70;;
53718;SDS011;39616;48.872;9.390;2023-04-24T06:17:43;1.50;;;0.80;;
53718;SDS011;39616;48.872;9.390;2023-04-24T06:20:14;0.70;;;0.70;;
53718;SDS011;39616;48.872;9.390;2023-04-24T06:22:44;1.83;;;0.88;;
53718;SDS011;39616;48.872;9.390;2023-04-24T06:25:14;1.50;;;0.80;;
53718;SDS011;39616;48.872;9.390;2023-04-24T06:27:45;1.02;;;0.70;;
53718;SDS011;39616;48.872;9.390;2023-04-24T06:30:15;1.35;;;0.88;;
53718;SDS011;39616;48.872;9.390;2023-04-24T06:32:45;1.48;;;0.90;;
53718;SDS011;39616;48.872;9.390;2023-04-24T06:35:16;1.38;;;0.75;;
53718;SDS011;39616;48.872;9.390;2023-04-24T06:37:46;1.05;;;0.80;;
53718;SDS011;39616;48.872;9.390;2023-04-24T06:40:17;1.75;;;0.75;;
53718;SDS011;39616;48.872;9.390;2023-04-24T06:42:48;1.10;;;0.70;;
53718;SDS011;39616;48.872;9.390;2023-04-24T06:45:18;1.95;;;0.70;;
53718;SDS011;39616;48.872;9.390;2023-04-24T06:47:49;1.13;;;0.90;;
53718;SDS011;39616;48.872;9.390;2023-04-24T06:50:19;1.88;;;0.70;;
53718;SDS011;39616;48.872;9.390;2023-04-24T06:52:50;1.33;;;0.80;;
53718;SDS011;39616;48.872;9.390;2023-04-24T06:55:20;0.60;;;0.60;;
53718;SDS011;39616;48.872;9.390;2023-04-24T06:57:50;0.80;;;0.80;;
53718;SDS011;39616;48.872;9.390;2023-04-24T07:00:20;0.98;;;0.70;;
53718;SDS011;39616;48.872;9.390;2023-04-24T07:02:51;0.70;;;0.70;;
53718;SDS011;39616;48.872;9.390;2023-04-24T07:05:21;2.80;;;0.70;;
53718;SDS011;39616;48.872;9.390;2023-04-24T07:07:51;0.77;;;0.70;;
53718;SDS011;39616;48.872;9.390;2023-04-24T07:10:23;1.15;;;0.60;;
53718;SDS011;39616;48.872;9.390;2023-04-24T07:12:53;3.22;;;0.68;;
53718;SDS011;39616;48.872;9.390;2023-04-24T07:15:24;0.70;;;0.60;;
53718;SDS011;39616;48.872;9.390;2023-04-24T07:17:54;1.20;;;0.68;;
53718;SDS011;39616;48.872;9.390;2023-04-24T07:20:24;1.05;;;0.60;;
53718;SDS011;39616;48.872;9.390;2023-04-24T07:22:55;2.45;;;0.80;;
53718;SDS011;39616;48.872;9.390;2023-04-24T07:25:25;0.75;;;0.60;;
53718;SDS011;39616;48.872;9.390;2023-04-24T07:27:55;2.15;;;0.80;;
53718;SDS011;39616;48.872;9.390;2023-04-24T07:30:26;1.52;;;0.68;;
53718;SDS011;39616;48.872;9.390;2023-04-24T07:32:58;0.85;;;0.70;;
53718;SDS011;39616;48.872;9.390;2023-04-24T07:35:29;2.10;;;0.70;;
53718;SDS011;39616;48.872;9.390;2023-04-24T07:37:59;1.60;;;0.68;;
53718;SDS011;39616;48.872;9.390;2023-04-24T07:40:30;1.50;;;0.60;;
53718;SDS011;39616;48.872;9.390;2023-04-24T07:43:00;1.30;;;0.70;;
53718;SDS011;39616;48.872;9.390;2023-04-24T07:45:30;3.55;;;0.85;;
53718;SDS011;39616;48.872;9.390;2023-04-24T07:48:01;1.50;;;0.80;;
53718;SDS011;39616;48.872;9.390;2023-04-24T07:50:31;1.77;;;0.70;;
53718;SDS011;39616;48.872;9.390;2023-04-24T07:53:02;2.45;;;0.63;;
53718;SDS011;39616;48.872;9.390;2023-04-24T07:55:32;0.63;;;0.60;;
53718;SDS011;39616;48.872;9.390;2023-04-24T07:58:02;0.98;;;0.60;;
53718;SDS011;39616;48.872;9.390;2023-04-24T08:00:33;2.58;;;1.00;;
53718;SDS011;39616;48.872;9.390;2023-04-24T08:03:03;2.58;;;0.70;;
53718;SDS011;39616;48.872;9.390;2023-04-24T08:05:33;0.60;;;0.57;;
53718;SDS011;39616;48.872;9.390;2023-04-24T08:08:04;0.95;;;0.60;;
53718;SDS011;39616;48.872;9.390;2023-04-24T08:10:34;0.63;;;0.57;;
53718;SDS011;39616;48.872;9.390;2023-04-24T08:13:05;1.20;;;0.70;;
53718;SDS011;39616;48.872;9.390;2023-04-24T08:15:35;0.90;;;0.70;;
53718;SDS011;39616;48.872;9.390;2023-04-24T08:18:05;0.63;;;0.63;;
53718;SDS011;39616;48.872;9.390;2023-04-24T08:20:36;1.25;;;0.73;;
53718;SDS011;39616;48.872;9.390;2023-04-24T08:23:07;3.08;;;0.60;;
53718;SDS011;39616;48.872;9.390;2023-04-24T08:25:37;1.33;;;0.60;;
53718;SDS011;39616;48.872;9.390;2023-04-24T08:28:08;0.60;;;0.50;;
53718;SDS011;39616;48.872;9.390;2023-04-24T08:30:39;2.38;;;0.60;;
53718;SDS011;39616;48.872;9.390;2023-04-24T08:33:09;1.85;;;0.75;;
53718;SDS011;39616;48.872;9.390;2023-04-24T08:35:39;1.55;;;0.70;;
53718;SDS011;39616;48.872;9.390;2023-04-24T08:38:10;1.05;;;0.77;;
53718;SDS011;39616;48.872;9.390;2023-04-24T08:40:40;2.95;;;0.73;;
53718;SDS011;39616;48.872;9.390;2023-04-24T08:43:11;3.25;;;0.70;;
53718;SDS011;39616;48.872;9.390;2023-04-24T08:45:43;1.52;;;0.70;;
53718;SDS011;39616;48.872;9.390;2023-04-24T08:48:13;1.65;;;1.08;;
53718;SDS011;39616;48.872;9.390;2023-04-24T08:50:44;1.45;;;0.70;;
53718;SDS011;39616;48.872;9.390;2023-04-24T08:53:15;0.75;;;0.60;;
53718;SDS011;39616;48.872;9.390;2023-04-24T08:55:46;1.15;;;0.60;;
53718;SDS011;39616;48.872;9.390;2023-04-24T08:58:18;0.93;;;0.70;;
53718;SDS011;39616;48.872;9.390;2023-04-24T09:00:49;0.75;;;0.50;;
53718;SDS011;39616;48.872;9.390;2023-04-24T09:03:19;1.00;;;0.50;;
53718;SDS011;39616;48.872;9.390;2023-04-24T09:05:51;1.25;;;0.60;;
53718;SDS011;39616;48.872;9.390;2023-04-24T09:08:24;0.60;;;0.50;;
53718;SDS011;39616;48.872;9.390;2023-04-24T09:10:55;0.85;;;0.50;;
53718;SDS011;39616;48.872;9.390;2023-04-24T09:13:28;0.40;;;0.40;;
53718;SDS011;39616;48.872;9.390;2023-04-24T09:15:58;0.60;;;0.50;;
53718;SDS011;39616;48.872;9.390;2023-04-24T09:18:30;1.08;;;0.50;;
53718;SDS011;39616;48.872;9.390;2023-04-24T09:21:02;1.10;;;0.50;;
53718;SDS011;39616;48.872;9.390;2023-04-24T09:23:34;1.35;;;0.60;;
53718;SDS011;39616;48.872;9.390;2023-04-24T09:26:04;0.88;;;0.63;;
53718;SDS011;39616;48.872;9.390;2023-04-24T09:28:35;2.13;;;0.40;;
53718;SDS011;39616;48.872;9.390;2023-04-24T09:31:14;0.50;;;0.50;;
53718;SDS011;39616;48.872;9.390;2023-04-24T09:33:58;0.40;;;0.40;;
53718;SDS011;39616;48.872;9.390;2023-04-24T09:41:51;2.03;;;0.50;;
53718;SDS011;39616;48.872;9.390;2023-04-24T09:44:24;0.32;;;0.32;;
53718;SDS011;39616;48.872;9.390;2023-04-24T09:46:57;0.50;;;0.50;;
53718;SDS011;39616;48.872;9.390;2023-04-24T09:49:29;1.30;;;0.50;;
53718;SDS011;39616;48.872;9.390;2023-04-24T09:52:03;0.40;;;0.40;;
53718;SDS011;39616;48.872;9.390;2023-04-24T09:54:35;1.02;;;0.60;;
53718;SDS011;39616;48.872;9.390;2023-04-24T09:57:09;1.52;;;0.60;;
53718;SDS011;39616;48.872;9.390;2023-04-24T09:59:42;1.70;;;0.60;;
53718;SDS011;39616;48.872;9.390;2023-04-24T10:02:19;1.92;;;0.57;;
53718;SDS011;39616;48.872;9.390;2023-04-24T10:04:56;1.70;;;0.60;;
53718;SDS011;39616;48.872;9.390;2023-04-24T10:07:29;3.70;;;0.50;;
53718;SDS011;39616;48.872;9.390;2023-04-24T10:09:59;0.88;;;0.55;;
53718;SDS011;39616;48.872;9.390;2023-04-24T10:12:30;1.25;;;0.50;;
53718;SDS011;39616;48.872;9.390;2023-04-24T10:15:01;0.70;;;0.50;;
53718;SDS011;39616;48.872;9.390;2023-04-24T10:17:32;1.73;;;0.50;;
53718;SDS011;39616;48.872;9.390;2023-04-24T10:20:04;0.35;;;0.32;;
53718;SDS011;39616;48.872;9.390;2023-04-24T10:22:36;0.52;;;0.50;;
53718;SDS011;39616;48.872;9.390;2023-04-24T10:25:07;0.43;;;0.43;;
53718;SDS011;39616;48.872;9.390;2023-04-24T10:27:38;1.67;;;0.43;;
53718;SDS011;39616;48.872;9.390;2023-04-24T10:30:10;1.88;;;0.50;;
53718;SDS011;39616;48.872;9.390;2023-04-24T10:32:42;1.48;;;0.50;;
53718;SDS011;39616;48.872;9.390;2023-04-24T10:35:13;0.40;;;0.40;;
53718;SDS011;39616;48.872;9.390;2023-04-24T10:37:48;2.80;;;0.93;;
53718;SDS011;39616;48.872;9.390;2023-04-24T10:40:25;0.50;;;0.50;;
53718;SDS011;39616;48.872;9.390;2023-04-24T10:43:07;0.50;;;0.50;;
53718;SDS011;39616;48.872;9.390;2023-04-24T10:45:40;0.70;;;0.63;;
53718;SDS011;39616;48.872;9.390;2023-04-24T10:48:10;0.68;;;0.40;;
53718;SDS011;39616;48.872;9.390;2023-04-24T10:50:46;0.80;;;0.50;;
53718;SDS011;39616;48.872;9.390;2023-04-24T10:53:22;0.60;;;0.60;;
53718;SDS011;39616;48.872;9.390;2023-04-24T10:56:05;2.28;;;0.60;;
53718;SDS011;39616;48.872;9.390;2023-04-24T10:58:43;0.50;;;0.45;;
53718;SDS011;39616;48.872;9.390;2023-04-24T11:01:23;0.63;;;0.63;;
53718;SDS011;39616;48.872;9.390;2023-04-24T11:03:57;3.08;;;0.60;;
53718;SDS011;39616;48.872;9.390;2023-04-24T11:06:35;0.57;;;0.57;;
53718;SDS011;39616;48.872;9.390;2023-04-24T11:09:07;1.42;;;0.65;;
53718;SDS011;39616;48.872;9.390;2023-04-24T11:11:44;2.25;;;0.60;;
53718;SDS011;39616;48.872;9.390;2023-04-24T11:14:15;0.70;;;0.70;;
53718;SDS011;39616;48.872;9.390;2023-04-24T11:16:52;2.72;;;0.70;;
53718;SDS011;39616;48.872;9.390;2023-04-24T11:19:26;3.58;;;0.70;;
53718;SDS011;39616;48.872;9.390;2023-04-24T11:21:59;0.60;;;0.60;;
53718;SDS011;39616;48.872;9.390;2023-04-24T11:24:48;1.13;;;0.60;;
53718;SDS011;39616;48.872;9.390;2023-04-24T11:27:21;0.80;;;0.70;;
53718;SDS011;39616;48.872;9.390;2023-04-24T11:32:38;0.70;;;0.60;;
53718;SDS011;39616;48.872;9.390;2023-04-24T11:35:17;1.23;;;0.80;;
53718;SDS011;39616;48.872;9.390;2023-04-24T11:37:54;1.83;;;0.55;;
53718;SDS011;39616;48.872;9.390;2023-04-24T11:40:25;0.98;;;0.50;;
53718;SDS011;39616;48.872;9.390;2023-04-24T11:42:55;0.90;;;0.57;;
53718;SDS011;39616;48.872;9.390;2023-04-24T11:45:27;2.55;;;0.63;;
53718;SDS011;39616;48.872;9.390;2023-04-24T11:47:58;0.98;;;0.75;;
53718;SDS011;39616;48.872;9.390;2023-04-24T11:50:29;0.82;;;0.70;;
53718;SDS011;39616;48.872;9.390;2023-04-24T11:52:59;1.17;;;0.57;;
53718;SDS011;39616;48.872;9.390;2023-04-24T11:55:30;0.63;;;0.63;;
53718;SDS011;39616;48.872;9.390;2023-04-24T11:58:00;1.23;;;0.70;;
53718;SDS011;39616;48.872;9.390;2023-04-24T12:00:31;3.45;;;1.02;;
53718;SDS011;39616;48.872;9.390;2023-04-24T12:03:06;0.82;;;0.70;;
53718;SDS011;39616;48.872;9.390;2023-04-24T12:05:38;0.60;;;0.50;;
53718;SDS011;39616;48.872;9.390;2023-04-24T12:08:09;2.70;;;0.75;;
53718;SDS011;39616;48.872;9.390;2023-04-24T12:10:39;1.90;;;0.70;;
53718;SDS011;39616;48.872;9.390;2023-04-24T12:13:09;1.70;;;0.60;;
53718;SDS011;39616;48.872;9.390;2023-04-24T12:15:41;1.20;;;0.52;;
53718;SDS011;39616;48.872;9.390;2023-04-24T12:18:12;0.55;;;0.50;;
53718;SDS011;39616;48.872;9.390;2023-04-24T12:20:43;3.35;;;0.70;;
53718;SDS011;39616;48.872;9.390;2023-04-24T12:23:13;0.50;;;0.50;;
53718;SDS011;39616;48.872;9.390;2023-04-24T12:25:44;0.70;;;0.70;;
53718;SDS011;39616;48.872;9.390;2023-04-24T12:28:14;1.10;;;0.70;;
53718;SDS011;39616;48.872;9.390;2023-04-24T12:30:48;1.00;;;0.70;;
53718;SDS011;39616;48.872;9.390;2023-04-24T12:33:19;1.10;;;0.60;;
53718;SDS011;39616;48.872;9.390;2023-04-24T12:35:53;0.60;;;0.60;;
53718;SDS011;39616;48.872;9.390;2023-04-24T12:38:27;0.93;;;0.70;;
53718;SDS011;39616;48.872;9.390;2023-04-24T12:41:11;0.60;;;0.60;;
53718;SDS011;39616;48.872;9.390;2023-04-24T12:43:52;2.20;;;0.80;;
53718;SDS011;39616;48.872;9.390;2023-04-24T12:46:23;0.80;;;0.70;;
53718;SDS011;39616;48.872;9.390;2023-04-24T12:48:53;0.85;;;0.63;;
53718;SDS011;39616;48.872;9.390;2023-04-24T12:51:23;0.75;;;0.75;;
53718;SDS011;39616;48.872;9.390;2023-04-24T12:53:54;1.38;;;0.60;;
53718;SDS011;39616;48.872;9.390;2023-04-24T12:56:24;1.92;;;0.70;;
53718;SDS011;39616;48.872;9.390;2023-04-24T12:58:54;1.45;;;0.70;;
53718;SDS011;39616;48.872;9.390;2023-04-24T13:01:25;0.82;;;0.70;;
53718;SDS011;39616;48.872;9.390;2023-04-24T13:03:56;0.70;;;0.70;;
53718;SDS011;39616;48.872;9.390;2023-04-24T13:06:26;1.27;;;0.60;;
53718;SDS011;39616;48.872;9.390;2023-04-24T13:08:57;1.25;;;0.68;;
53718;SDS011;39616;48.872;9.390;2023-04-24T13:11:28;3.20;;;0.70;;
53718;SDS011;39616;48.872;9.390;2023-04-24T13:13:58;2.42;;;0.70;;
53718;SDS011;39616;48.872;9.390;2023-04-24T13:16:28;0.82;;;0.70;;
53718;SDS011;39616;48.872;9.390;2023-04-24T13:18:58;0.50;;;0.50;;
53718;SDS011;39616;48.872;9.390;2023-04-24T13:21:29;1.27;;;0.75;;
53718;SDS011;39616;48.872;9.390;2023-04-24T13:24:00;2.50;;;0.70;;
53718;SDS011;39616;48.872;9.390;2023-04-24T13:26:30;1.42;;;0.80;;
53718;SDS011;39616;48.872;9.390;2023-04-24T13:29:00;1.60;;;0.55;;
53718;SDS011;39616;48.872;9.390;2023-04-24T13:31:31;0.70;;;0.60;;
53718;SDS011;39616;48.872;9.390;2023-04-24T13:34:02;1.25;;;0.60;;
53718;SDS011;39616;48.872;9.390;2023-04-24T13:36:33;1.17;;;0.63;;
53718;SDS011;39616;48.872;9.390;2023-04-24T13:39:03;0.90;;;0.60;;
53718;SDS011;39616;48.872;9.390;2023-04-24T13:41:35;1.52;;;0.60;;
53718;SDS011;39616;48.872;9.390;2023-04-24T13:44:06;0.82;;;0.60;;
53718;SDS011;39616;48.872;9.390;2023-04-24T13:46:36;0.93;;;0.70;;
53718;SDS011;39616;48.872;9.390;2023-04-24T13:49:06;0.75;;;0.70;;
53718;SDS011;39616;48.872;9.390;2023-04-24T13:51:37;4.05;;;0.85;;
53718;SDS011;39616;48.872;9.390;2023-04-24T13:54:07;1.60;;;0.80;;
53718;SDS011;39616;48.872;9.390;2023-04-24T13:56:38;1.05;;;0.70;;
53718;SDS011;39616;48.872;9.390;2023-04-24T13:59:14;3.17;;;0.90;;
53718;SDS011;39616;48.872;9.390;2023-04-24T14:01:45;2.78;;;0.80;;
53718;SDS011;39616;48.872;9.390;2023-04-24T14:04:15;4.78;;;0.90;;
53718;SDS011;39616;48.872;9.390;2023-04-24T14:06:46;1.45;;;0.90;;
53718;SDS011;39616;48.872;9.390;2023-04-24T14:09:16;1.35;;;0.90;;
53718;SDS011;39616;48.872;9.390;2023-04-24T14:11:46;1.83;;;0.80;;
53718;SDS011;39616;48.872;9.390;2023-04-24T14:14:16;2.35;;;1.10;;
53718;SDS011;39616;48.872;9.390;2023-04-24T14:16:47;1.33;;;0.70;;
53718;SDS011;39616;48.872;9.390;2023-04-24T14:19:17;1.40;;;0.70;;
53718;SDS011;39616;48.872;9.390;2023-04-24T14:21:48;1.00;;;0.90;;
53718;SDS011;39616;48.872;9.390;2023-04-24T14:24:18;1.38;;;0.60;;
53718;SDS011;39616;48.872;9.390;2023-04-24T14:26:49;0.95;;;0.60;;
53718;SDS011;39616;48.872;9.390;2023-04-24T14:29:19;2.60;;;1.00;;
53718;SDS011;39616;48.872;9.390;2023-04-24T14:31:50;1.10;;;0.70;;
53718;SDS011;39616;48.872;9.390;2023-04-24T14:34:20;2.70;;;0.70;;
53718;SDS011;39616;48.872;9.390;2023-04-24T14:36:51;2.60;;;0.75;;
53718;SDS011;39616;48.872;9.390;2023-04-24T14:39:22;1.42;;;0.70;;
53718;SDS011;39616;48.872;9.390;2023-04-24T14:41:53;3.45;;;0.80;;
53718;SDS011;39616;48.872;9.390;2023-04-24T14:44:23;1.73;;;0.70;;
53718;SDS011;39616;48.872;9.390;2023-04-24T14:46:53;0.75;;;0.70;;
53718;SDS011;39616;48.872;9.390;2023-04-24T14:49:24;0.60;;;0.60;;
53718;SDS011;39616;48.872;9.390;2023-04-24T14:51:54;0.93;;;0.80;;
53718;SDS011;39616;48.872;9.390;2023-04-24T14:54:25;1.48;;;0.60;;
53718;SDS011;39616;48.872;9.390;2023-04-24T14:56:55;2.25;;;0.90;;
53718;SDS011;39616;48.872;9.390;2023-04-24T14:59:27;1.83;;;0.80;;
53718;SDS011;39616;48.872;9.390;2023-04-24T15:01:58;1.00;;;0.90;;
53718;SDS011;39616;48.872;9.390;2023-04-24T15:04:29;1.67;;;0.90;;
53718;SDS011;39616;48.872;9.390;2023-04-24T15:07:00;2.60;;;0.75;;
53718;SDS011;39616;48.872;9.390;2023-04-24T15:09:31;0.73;;;0.70;;
53718;SDS011;39616;48.872;9.390;2023-04-24T15:12:02;0.80;;;0.77;;
53718;SDS011;39616;48.872;9.390;2023-04-24T15:14:32;1.45;;;0.60;;
53718;SDS011;39616;48.872;9.390;2023-04-24T15:17:03;1.25;;;0.80;;
53718;SDS011;39616;48.872;9.390;2023-04-24T15:19:33;1.92;;;0.60;;